createdAt,value
2018-05-11T00:01:03.965Z,101345.35
2018-05-11T00:03:31.434Z,101345.20
2018-05-11T00:05:58.976Z,101339.55
2018-05-11T00:08:26.463Z,101343.78
2018-05-11T00:10:53.956Z,101341.16
2018-05-11T00:13:21.465Z,101345.85
2018-05-11T00:15:48.967Z,101338.78
2018-05-11T00:18:16.437Z,101348.08
2018-05-11T00:20:43.961Z,101356.36
2018-05-11T00:23:11.471Z,101358.78
2018-05-11T00:25:38.970Z,101365.71
2018-05-11T00:28:06.495Z,101371.28
2018-05-11T00:30:33.997Z,101371.45
2018-05-11T00:33:01.533Z,101377.16
2018-05-11T00:35:29.006Z,101373.11
2018-05-11T00:37:56.514Z,101383.49
2018-05-11T00:40:24.047Z,101387.45
2018-05-11T00:42:51.579Z,101382.86
2018-05-11T00:45:19.089Z,101399.55
2018-05-11T00:47:46.559Z,101400.95
2018-05-11T00:50:14.039Z,101400.41
2018-05-11T00:52:41.598Z,101405.11
2018-05-11T00:55:20.973Z,101399.66
2018-05-11T00:57:48.442Z,101406.34
2018-05-11T01:00:15.902Z,101414.06
2018-05-11T01:02:43.395Z,101417.77
2018-05-11T01:05:10.879Z,101409.89
2018-05-11T01:07:38.370Z,101413.33
2018-05-11T01:10:05.914Z,101421.33
2018-05-11T01:12:33.484Z,101426.08
2018-05-11T01:15:00.957Z,101434.45
2018-05-11T01:17:28.436Z,101435.47
2018-05-11T01:19:56.040Z,101438.50
2018-05-11T01:22:23.508Z,101434.06
2018-05-11T01:24:51.061Z,101440.04
2018-05-11T01:27:19.035Z,101446.09
2018-05-11T01:29:46.552Z,101444.61
2018-05-11T01:32:14.037Z,101445.90
2018-05-11T01:34:41.552Z,101445.14
2018-05-11T01:37:09.154Z,101444.55
2018-05-11T01:39:36.646Z,101456.16
2018-05-11T01:42:04.485Z,101454.49
2018-05-11T01:44:31.996Z,101455.92
2018-05-11T01:46:59.462Z,101460.22
2018-05-11T01:49:26.993Z,101467.27
2018-05-11T01:51:54.495Z,101468.51
2018-05-11T01:54:22.051Z,101474.78
2018-05-11T01:56:49.557Z,101474.09
2018-05-11T01:59:17.025Z,101477.40
2018-05-11T02:01:44.539Z,101481.95
2018-05-11T02:04:12.008Z,101479.62
2018-05-11T02:06:39.535Z,101483.40
2018-05-11T02:09:07.005Z,101476.69
2018-05-11T02:11:34.636Z,101476.97
2018-05-11T02:14:02.112Z,101486.80
2018-05-11T02:16:29.607Z,101489.23
2018-05-11T02:18:57.071Z,101493.97
2018-05-11T02:21:24.610Z,101482.59
2018-05-11T02:23:52.103Z,101493.42
2018-05-11T02:26:19.604Z,101489.04
2018-05-11T02:28:47.074Z,101486.24
2018-05-11T02:31:14.590Z,101488.81
2018-05-11T02:33:42.089Z,101494.81
2018-05-11T02:36:09.665Z,101492.30
2018-05-11T02:38:37.164Z,101493.88
2018-05-11T02:41:04.658Z,101500.31
2018-05-11T02:43:32.147Z,101500.78
2018-05-11T02:45:59.626Z,101507.20
2018-05-11T02:48:27.159Z,101508.09
2018-05-11T02:50:54.624Z,101508.78
2018-05-11T02:53:22.115Z,101507.05
2018-05-11T02:55:49.658Z,101513.28
2018-05-11T02:58:17.197Z,101520.05
2018-05-11T03:00:44.703Z,101521.13
2018-05-11T03:03:12.188Z,101522.76
2018-05-11T03:05:39.753Z,101522.63
2018-05-11T03:08:07.228Z,101536.62
2018-05-11T03:10:35.221Z,101535.37
2018-05-11T03:13:02.689Z,101533.47
2018-05-11T03:15:30.189Z,101541.38
2018-05-11T03:17:57.680Z,101543.05
2018-05-11T03:20:25.309Z,101538.58
2018-05-11T03:22:52.795Z,101535.86
2018-05-11T03:25:20.283Z,101540.83
2018-05-11T03:27:47.804Z,101545.84
2018-05-11T03:30:15.345Z,101542.06
2018-05-11T03:32:42.855Z,101548.47
2018-05-11T03:35:10.319Z,101552.12
2018-05-11T03:37:37.867Z,101548.14
2018-05-11T03:40:05.404Z,101560.57
2018-05-11T03:42:32.900Z,101556.04
2018-05-11T03:45:00.387Z,101558.89
2018-05-11T03:47:27.916Z,101560.07
2018-05-11T03:49:55.428Z,101563.41
2018-05-11T03:52:22.917Z,101568.24
2018-05-11T03:54:50.413Z,101568.84
2018-05-11T03:57:17.972Z,101573.48
2018-05-11T03:59:45.466Z,101577.13
2018-05-11T04:02:24.700Z,101577.53
2018-05-11T04:05:04.066Z,101573.75
2018-05-11T04:07:44.200Z,101577.28
2018-05-11T04:10:11.718Z,101572.73
2018-05-11T04:12:39.187Z,101575.09
2018-05-11T04:15:06.739Z,101582.52
2018-05-11T04:17:34.209Z,101592.54
2018-05-11T04:20:01.874Z,101592.08
2018-05-11T04:22:29.381Z,101592.13
2018-05-11T04:24:56.873Z,101590.09
2018-05-11T04:27:24.381Z,101594.72
2018-05-11T04:29:51.864Z,101587.43
2018-05-11T04:32:19.390Z,101590.80
2018-05-11T04:34:46.911Z,101591.98
2018-05-11T04:37:14.427Z,101596.05
2018-05-11T04:39:42.031Z,101591.61
2018-05-11T04:42:09.499Z,101595.53
2018-05-11T04:44:37.014Z,101593.03
2018-05-11T04:47:04.513Z,101591.14
2018-05-11T04:49:32.396Z,101595.73
2018-05-11T04:51:59.894Z,101594.61
2018-05-11T04:54:27.452Z,101604.31
2018-05-11T04:56:54.964Z,101601.94
2018-05-11T04:59:22.446Z,101606.41
2018-05-11T05:01:49.927Z,101606.73
2018-05-11T05:04:17.502Z,101598.07
2018-05-11T05:06:44.999Z,101604.31
2018-05-11T05:09:12.514Z,101606.69
2018-05-11T05:11:40.042Z,101610.19
2018-05-11T05:14:07.647Z,101614.23
2018-05-11T05:16:35.138Z,101617.23
2018-05-11T05:19:02.665Z,101610.95
2018-05-11T05:21:30.117Z,101620.33
2018-05-11T05:23:57.622Z,101616.91
2018-05-11T05:26:25.095Z,101619.23
2018-05-11T05:28:52.622Z,101617.75
2018-05-11T05:31:20.133Z,101626.80
2018-05-11T05:33:47.663Z,101609.95
2018-05-11T05:36:15.245Z,101612.64
2018-05-11T05:38:42.708Z,101609.77
2018-05-11T05:41:10.192Z,101617.33
2018-05-11T05:43:37.726Z,101609.49
2018-05-11T05:46:05.209Z,101609.84
2018-05-11T05:48:32.711Z,101622.12
2018-05-11T05:51:00.228Z,101623.88
2018-05-11T05:53:27.790Z,101632.41
2018-05-11T05:55:55.281Z,101634.41
2018-05-11T05:58:22.783Z,101637.63
2018-05-11T06:00:50.301Z,101637.95
2018-05-11T06:03:17.783Z,101637.98
2018-05-11T06:05:45.330Z,101644.48
2018-05-11T06:08:12.829Z,101640.72
2018-05-11T06:10:40.342Z,101647.08
2018-05-11T06:13:07.927Z,101646.88
2018-05-11T06:15:35.446Z,101647.19
2018-05-11T06:18:02.926Z,101656.45
2018-05-11T06:20:30.452Z,101656.30
2018-05-11T06:22:57.965Z,101658.30
2018-05-11T06:25:25.463Z,101655.84
2018-05-11T06:27:52.990Z,101648.66
2018-05-11T06:30:20.504Z,101648.62
2018-05-11T06:32:48.008Z,101648.72
2018-05-11T06:35:15.506Z,101649.88
2018-05-11T06:37:42.974Z,101659.95
2018-05-11T06:40:10.493Z,101652.91
2018-05-11T06:42:37.964Z,101660.59
2018-05-11T06:45:05.508Z,101657.94
2018-05-11T06:47:33.011Z,101658.65
2018-05-11T06:50:00.507Z,101660.92
2018-05-11T06:52:27.988Z,101669.27
2018-05-11T06:54:55.508Z,101663.81
2018-05-11T06:57:23.007Z,101665.45
2018-05-11T06:59:50.510Z,101661.96
2018-05-11T07:02:17.979Z,101663.42
2018-05-11T07:04:45.576Z,101659.99
2018-05-11T07:07:13.049Z,101652.68
2018-05-11T07:09:40.563Z,101658.54
2018-05-11T07:12:08.056Z,101667.68
2018-05-11T07:14:35.587Z,101667.23
2018-05-11T07:17:03.054Z,101669.22
2018-05-11T07:19:30.629Z,101672.34
2018-05-11T07:21:58.057Z,101672.67
2018-05-11T07:24:25.612Z,101671.19
2018-05-11T07:26:53.131Z,101667.63
2018-05-11T07:29:20.686Z,101664.88
2018-05-11T07:31:48.175Z,101670.59
2018-05-11T07:34:15.826Z,101669.28
2018-05-11T07:36:43.312Z,101673.16
2018-05-11T07:39:10.844Z,101670.25
2018-05-11T07:41:38.340Z,101665.77
2018-05-11T07:44:05.881Z,101662.45
2018-05-11T07:46:33.369Z,101665.08
2018-05-11T07:49:00.880Z,101654.75
2018-05-11T07:51:28.566Z,101656.49
2018-05-11T07:53:56.028Z,101655.15
2018-05-11T07:56:24.140Z,101658.94
2018-05-11T07:58:51.652Z,101648.38
2018-05-11T08:01:19.125Z,101647.55
2018-05-11T08:03:46.609Z,101647.81
2018-05-11T08:06:14.129Z,101660.90
2018-05-11T08:08:41.609Z,101647.16
2018-05-11T08:11:09.166Z,101647.36
2018-05-11T08:13:36.659Z,101645.75
2018-05-11T08:16:04.156Z,101645.12
2018-05-11T08:18:31.767Z,101640.48
2018-05-11T08:20:59.262Z,101639.54
2018-05-11T08:23:26.765Z,101640.03
2018-05-11T08:25:54.322Z,101650.72
2018-05-11T08:28:21.790Z,101647.56
2018-05-11T08:30:49.301Z,101651.42
2018-05-11T08:33:16.779Z,101647.22
2018-05-11T08:35:44.483Z,101648.81
2018-05-11T08:38:11.928Z,101647.36
2018-05-11T08:40:39.427Z,101649.44
2018-05-11T08:43:06.986Z,101653.65
2018-05-11T08:45:34.483Z,101650.55
2018-05-11T08:48:02.001Z,101651.48
2018-05-11T08:50:29.484Z,101648.78
2018-05-11T08:52:56.977Z,101641.77
2018-05-11T08:55:24.514Z,101642.88
2018-05-11T08:57:51.998Z,101645.03
2018-05-11T09:00:19.519Z,101645.48
2018-05-11T09:02:47.026Z,101646.38
2018-05-11T09:05:14.586Z,101651.16
2018-05-11T09:07:42.094Z,101648.69
2018-05-11T09:10:09.591Z,101648.53
2018-05-11T09:12:37.224Z,101650.81
2018-05-11T09:15:04.715Z,101648.23
2018-05-11T09:17:32.222Z,101640.34
2018-05-11T09:19:59.707Z,101640.90
2018-05-11T09:22:27.294Z,101643.10
2018-05-11T09:24:55.487Z,101644.16
2018-05-11T09:27:22.990Z,101644.92
2018-05-11T09:29:50.543Z,101646.59
2018-05-11T09:32:18.056Z,101647.83
2018-05-11T09:34:45.639Z,101646.44
2018-05-11T09:37:13.170Z,101648.24
2018-05-11T09:39:40.694Z,101654.87
2018-05-11T09:42:08.205Z,101648.16
2018-05-11T09:44:35.708Z,101644.78
2018-05-11T09:47:03.188Z,101651.77
2018-05-11T09:49:30.763Z,101641.05
2018-05-11T09:51:58.229Z,101637.33
2018-05-11T09:54:25.845Z,101643.77
2018-05-11T09:56:53.323Z,101651.26
2018-05-11T09:59:21.318Z,101645.95
2018-05-11T10:01:48.831Z,101645.88
2018-05-11T10:04:16.689Z,101651.48
2018-05-11T10:06:44.180Z,101650.14
2018-05-11T10:09:11.654Z,101650.16
2018-05-11T10:11:39.179Z,101644.55
2018-05-11T10:14:06.720Z,101644.76
2018-05-11T10:16:34.449Z,101642.64
2018-05-11T10:19:01.967Z,101633.43
2018-05-11T10:21:29.506Z,101637.54
2018-05-11T10:23:57.001Z,101647.02
2018-05-11T10:26:24.459Z,101642.97
2018-05-11T10:28:52.161Z,101642.00
2018-05-11T10:31:20.474Z,101645.92
2018-05-11T10:33:47.972Z,101648.31
2018-05-11T10:36:15.460Z,101651.26
2018-05-11T10:38:42.979Z,101648.56
2018-05-11T10:41:10.452Z,101651.69
2018-05-11T10:43:37.949Z,101655.55
2018-05-11T10:46:05.483Z,101648.98
2018-05-11T10:48:33.044Z,101650.01
2018-05-11T10:51:01.197Z,101647.63
2018-05-11T10:53:28.693Z,101643.97
2018-05-11T10:55:56.225Z,101645.80
2018-05-11T10:58:23.783Z,101641.67
2018-05-11T11:00:51.322Z,101654.05
2018-05-11T11:03:19.265Z,101644.95
2018-05-11T11:05:46.778Z,101647.23
2018-05-11T11:08:14.248Z,101645.40
2018-05-11T11:10:41.877Z,101648.66
2018-05-11T11:13:09.481Z,101648.36
2018-05-11T11:15:36.968Z,101650.30
2018-05-11T11:18:04.439Z,101643.73
2018-05-11T11:20:31.932Z,101644.19
2018-05-11T11:22:59.429Z,101648.48
2018-05-11T11:25:26.937Z,101647.17
2018-05-11T11:27:54.451Z,101641.91
2018-05-11T11:30:22.019Z,101638.70
2018-05-11T11:32:49.523Z,101641.87
2018-05-11T11:35:17.060Z,101643.98
2018-05-11T11:37:44.574Z,101636.52
2018-05-11T11:40:12.168Z,101642.12
2018-05-11T11:42:39.691Z,101645.12
2018-05-11T11:45:07.196Z,101641.30
2018-05-11T11:47:34.775Z,101640.22
2018-05-11T11:50:02.253Z,101634.82
2018-05-11T11:52:29.755Z,101634.41
2018-05-11T11:54:57.280Z,101630.44
2018-05-11T11:57:24.771Z,101625.31
2018-05-11T11:59:52.412Z,101622.36
2018-05-11T12:02:19.906Z,101622.86
2018-05-11T12:04:47.415Z,101616.23
2018-05-11T12:07:14.897Z,101614.57
2018-05-11T12:09:42.420Z,101607.67
2018-05-11T12:12:09.917Z,101611.25
2018-05-11T12:14:37.455Z,101601.19
2018-05-11T12:17:04.971Z,101607.59
2018-05-11T12:19:32.495Z,101610.16
2018-05-11T12:22:00.001Z,101605.62
2018-05-11T12:24:27.477Z,101600.44
2018-05-11T12:26:54.956Z,101601.46
2018-05-11T12:29:22.519Z,101598.44
2018-05-11T12:31:49.982Z,101596.96
2018-05-11T12:34:17.514Z,101593.97
2018-05-11T12:36:45.120Z,101598.17
2018-05-11T12:39:12.626Z,101594.91
2018-05-11T12:41:40.102Z,101591.62
2018-05-11T12:44:07.629Z,101592.78
2018-05-11T12:46:35.274Z,101587.08
2018-05-11T12:49:02.728Z,101589.14
2018-05-11T12:51:30.252Z,101590.98
2018-05-11T12:53:57.785Z,101588.81
2018-05-11T12:56:25.305Z,101587.05
2018-05-11T12:58:52.779Z,101583.48
2018-05-11T13:01:20.264Z,101585.22
2018-05-11T13:03:47.781Z,101578.87
2018-05-11T13:06:15.312Z,101580.45
2018-05-11T13:08:42.830Z,101578.64
2018-05-11T13:11:10.329Z,101572.13
2018-05-11T13:13:37.863Z,101571.17
2018-05-11T13:16:05.356Z,101568.28
2018-05-11T13:18:32.857Z,101567.33
2018-05-11T13:21:00.345Z,101566.14
2018-05-11T13:23:27.843Z,101564.76
2018-05-11T13:25:55.463Z,101565.84
2018-05-11T13:28:22.964Z,101567.10
2018-05-11T13:30:50.447Z,101568.05
2018-05-11T13:33:17.985Z,101560.61
2018-05-11T13:35:45.471Z,101563.97
2018-05-11T13:38:13.019Z,101562.99
2018-05-11T13:40:40.544Z,101559.75
2018-05-11T13:43:08.058Z,101562.23
2018-05-11T13:45:35.637Z,101571.48
2018-05-11T13:48:08.993Z,101559.30
2018-05-11T13:50:36.511Z,101555.63
2018-05-11T13:53:03.982Z,101554.08
2018-05-11T13:55:31.498Z,101554.58
2018-05-11T13:57:59.016Z,101547.52
2018-05-11T14:00:26.496Z,101542.86
2018-05-11T14:02:54.009Z,101538.75
2018-05-11T14:05:21.508Z,101544.55
2018-05-11T14:07:49.014Z,101542.48
2018-05-11T14:10:16.666Z,101539.30
2018-05-11T14:12:44.121Z,101534.28
2018-05-11T14:15:11.671Z,101528.08
2018-05-11T14:17:39.414Z,101528.09
2018-05-11T14:20:06.957Z,101529.69
2018-05-11T14:22:34.436Z,101524.35
2018-05-11T14:25:02.017Z,101524.95
2018-05-11T14:27:30.016Z,101520.24
2018-05-11T14:29:57.554Z,101518.50
2018-05-11T14:32:25.047Z,101523.80
2018-05-11T14:34:52.588Z,101517.91
2018-05-11T14:37:20.099Z,101515.81
2018-05-11T14:39:47.601Z,101509.60
2018-05-11T14:42:15.068Z,101511.08
2018-05-11T14:44:42.557Z,101514.84
2018-05-11T14:47:10.089Z,101510.27
2018-05-11T14:49:37.622Z,101516.34
2018-05-11T14:52:20.054Z,101511.47
2018-05-11T14:55:35.390Z,101505.70
2018-05-11T14:58:02.903Z,101498.86
2018-05-11T15:00:30.403Z,101496.83
2018-05-11T15:02:57.925Z,101503.79
2018-05-11T15:05:25.425Z,101499.39
2018-05-11T15:07:52.919Z,101505.61
2018-05-11T15:10:20.452Z,101507.49
2018-05-11T15:12:48.018Z,101500.55
2018-05-11T15:15:15.631Z,101504.27
2018-05-11T15:17:43.618Z,101500.59
2018-05-11T15:20:11.102Z,101493.27
2018-05-11T15:22:38.590Z,101496.81
2018-05-11T15:25:06.078Z,101491.73
2018-05-11T15:27:33.667Z,101491.86
2018-05-11T15:30:01.173Z,101487.58
2018-05-11T15:32:28.675Z,101489.67
2018-05-11T15:34:56.196Z,101481.66
2018-05-11T15:37:23.698Z,101488.09
2018-05-11T15:39:51.209Z,101477.83
2018-05-11T15:42:18.729Z,101486.17
2018-05-11T15:44:46.279Z,101484.83
2018-05-11T15:47:13.858Z,101486.77
2018-05-11T15:49:41.333Z,101488.41
2018-05-11T15:52:08.824Z,101484.22
2018-05-11T15:54:36.339Z,101478.66
2018-05-11T15:57:03.864Z,101477.40
2018-05-11T15:59:31.338Z,101475.16
2018-05-11T16:01:59.340Z,101480.00
2018-05-11T16:04:26.857Z,101480.00
2018-05-11T16:06:54.356Z,101473.78
2018-05-11T16:09:22.020Z,101471.22
2018-05-11T16:11:49.518Z,101462.91
2018-05-11T16:14:17.049Z,101463.30
2018-05-11T16:16:44.566Z,101458.77
2018-05-11T16:19:12.082Z,101463.72
2018-05-11T16:21:39.560Z,101464.14
2018-05-11T16:24:07.063Z,101460.05
2018-05-11T16:26:34.534Z,101458.69
2018-05-11T16:29:02.039Z,101458.53
2018-05-11T16:31:29.537Z,101455.72
2018-05-11T16:33:57.072Z,101456.84
2018-05-11T16:36:25.050Z,101457.64
2018-05-11T16:38:52.535Z,101455.68
2018-05-11T16:41:20.052Z,101453.47
2018-05-11T16:43:47.536Z,101453.48
2018-05-11T16:46:15.135Z,101455.94
2018-05-11T16:48:42.610Z,101450.35
2018-05-11T16:51:10.186Z,101448.16
2018-05-11T16:53:37.644Z,101450.73
2018-05-11T16:56:05.238Z,101442.61
2018-05-11T16:58:32.732Z,101447.12
2018-05-11T17:01:00.237Z,101442.19
2018-05-11T17:03:27.744Z,101442.87
2018-05-11T17:05:55.273Z,101435.80
2018-05-11T17:08:22.739Z,101440.64
2018-05-11T17:10:50.261Z,101439.12
2018-05-11T17:13:17.758Z,101436.94
2018-05-11T17:15:45.302Z,101440.00
2018-05-11T17:18:13.760Z,101432.03
2018-05-11T17:20:41.376Z,101440.42
2018-05-11T17:23:08.997Z,101441.66
2018-05-11T17:25:36.588Z,101446.66
2018-05-11T17:28:04.444Z,101448.09
2018-05-11T17:30:32.029Z,101439.64
2018-05-11T17:33:00.241Z,101440.39
2018-05-11T17:35:27.799Z,101442.67
2018-05-11T17:37:55.577Z,101438.33
2018-05-11T17:40:24.577Z,101440.19
2018-05-11T17:42:52.085Z,101440.66
2018-05-11T17:45:19.681Z,101442.41
2018-05-11T17:47:47.622Z,101441.34
2018-05-11T17:50:15.193Z,101442.86
2018-05-11T17:52:43.406Z,101439.77
2018-05-11T17:55:11.029Z,101446.96
2018-05-11T17:57:38.561Z,101447.42
2018-05-11T18:00:06.076Z,101449.66
2018-05-11T18:02:33.550Z,101445.30
2018-05-11T18:05:01.046Z,101442.55
2018-05-11T18:07:28.574Z,101449.63
2018-05-11T18:09:56.114Z,101442.55
2018-05-11T18:12:23.729Z,101444.16
2018-05-11T18:14:51.271Z,101441.44
2018-05-11T18:17:18.810Z,101444.83
2018-05-11T18:19:46.356Z,101440.42
2018-05-11T18:22:13.927Z,101437.14
2018-05-11T18:24:41.576Z,101442.88
2018-05-11T18:27:09.075Z,101444.80
2018-05-11T18:29:36.632Z,101439.72
2018-05-11T18:32:04.165Z,101443.15
2018-05-11T18:34:31.971Z,101447.56
2018-05-11T18:36:59.489Z,101453.26
2018-05-11T18:39:28.260Z,101449.18
2018-05-11T18:41:55.801Z,101450.31
2018-05-11T18:44:23.356Z,101455.66
2018-05-11T18:46:51.459Z,101453.73
2018-05-11T18:49:19.051Z,101450.85
2018-05-11T18:51:46.804Z,101458.47
2018-05-11T18:54:14.607Z,101461.11
2018-05-11T18:56:41.860Z,101457.27
2018-05-11T18:59:09.377Z,101460.44
2018-05-11T19:01:36.900Z,101457.52
2018-05-11T19:04:04.374Z,101458.20
2018-05-11T19:06:32.002Z,101463.80
2018-05-11T19:08:59.498Z,101471.03
2018-05-11T19:11:27.024Z,101472.16
2018-05-11T19:13:54.516Z,101478.92
2018-05-11T19:16:22.083Z,101480.84
2018-05-11T19:18:49.606Z,101481.39
2018-05-11T19:21:17.110Z,101478.83
2018-05-11T19:23:44.606Z,101479.52
2018-05-11T19:26:12.097Z,101484.33
2018-05-11T19:28:39.659Z,101483.37
2018-05-11T19:31:07.162Z,101488.91
2018-05-11T19:33:34.651Z,101490.19
2018-05-11T19:36:02.188Z,101492.06
2018-05-11T19:38:29.707Z,101491.16
2018-05-11T19:40:57.228Z,101493.86
2018-05-11T19:43:25.013Z,101492.66
2018-05-11T19:45:52.567Z,101501.39
2018-05-11T19:48:20.080Z,101495.66
2018-05-11T19:50:47.795Z,101501.92
2018-05-11T19:53:15.295Z,101493.08
2018-05-11T19:55:42.864Z,101499.62
2018-05-11T19:58:10.479Z,101495.13
2018-05-11T20:00:38.000Z,101504.91
2018-05-11T20:03:05.533Z,101503.02
2018-05-11T20:05:33.039Z,101502.17
2018-05-11T20:08:00.597Z,101508.70
2018-05-11T20:10:28.234Z,101505.58
2018-05-11T20:12:55.736Z,101507.47
2018-05-11T20:15:23.411Z,101503.38
2018-05-11T20:17:50.894Z,101503.69
2018-05-11T20:20:18.446Z,101505.43
2018-05-11T20:22:45.937Z,101509.13
2018-05-11T20:25:13.519Z,101513.05
2018-05-11T20:27:41.315Z,101513.20
2018-05-11T20:30:08.864Z,101518.78
2018-05-11T20:32:36.451Z,101518.74
2018-05-11T20:35:03.894Z,101512.89
2018-05-11T20:37:31.421Z,101517.38
2018-05-11T20:39:58.932Z,101519.25
2018-05-11T20:42:26.573Z,101515.06
2018-05-11T20:44:54.080Z,101518.88
2018-05-11T20:47:21.615Z,101517.11
2018-05-11T20:49:49.153Z,101522.55
2018-05-11T20:52:16.649Z,101527.20
2018-05-11T20:54:44.200Z,101525.09
2018-05-11T20:57:11.803Z,101517.91
2018-05-11T20:59:39.276Z,101525.20
2018-05-11T21:02:06.795Z,101525.19
2018-05-11T21:04:34.308Z,101519.58
2018-05-11T21:07:01.949Z,101523.47
2018-05-11T21:09:29.444Z,101524.17
2018-05-11T21:11:56.978Z,101524.23
2018-05-11T21:14:24.562Z,101530.61
2018-05-11T21:16:52.069Z,101524.43
2018-05-11T21:19:19.559Z,101526.73
2018-05-11T21:21:47.045Z,101527.08
2018-05-11T21:24:14.577Z,101530.20
2018-05-11T21:26:42.062Z,101531.70
2018-05-11T21:29:09.553Z,101532.08
2018-05-11T21:31:37.033Z,101530.36
2018-05-11T21:34:04.601Z,101527.84
2018-05-11T21:36:32.096Z,101531.91
2018-05-11T21:38:59.622Z,101530.59
2018-05-11T21:41:27.114Z,101534.73
2018-05-11T21:43:54.864Z,101529.73
2018-05-11T21:46:22.365Z,101538.87
2018-05-11T21:48:49.865Z,101531.27
2018-05-11T21:51:17.385Z,101527.34
2018-05-11T21:53:44.862Z,101529.16
2018-05-11T21:56:12.516Z,101527.50
2018-05-11T21:58:40.005Z,101524.41
2018-05-11T22:01:07.527Z,101528.70
2018-05-11T22:03:35.024Z,101527.94
2018-05-11T22:06:02.577Z,101523.20
2018-05-11T22:08:30.035Z,101525.05
2018-05-11T22:10:57.531Z,101524.55
2018-05-11T22:13:25.085Z,101523.59
2018-05-11T22:15:52.618Z,101523.84
2018-05-11T22:18:20.157Z,101521.09
2018-05-11T22:20:47.656Z,101522.10
2018-05-11T22:23:15.258Z,101519.97
2018-05-11T22:25:44.397Z,101520.20
2018-05-11T22:28:13.567Z,101522.45
2018-05-11T22:30:41.907Z,101523.41
2018-05-11T22:33:09.808Z,101525.71
2018-05-11T22:35:37.488Z,101524.77
2018-05-11T22:38:07.759Z,101534.13
2018-05-11T22:40:35.313Z,101534.42
2018-05-11T22:43:09.127Z,101532.51
2018-05-11T22:45:37.379Z,101526.80
2018-05-11T22:48:05.253Z,101524.47
2018-05-11T22:50:34.514Z,101523.11
2018-05-11T22:53:02.438Z,101523.25
2018-05-11T22:55:30.926Z,101519.32
2018-05-11T22:57:58.445Z,101521.75
2018-05-11T23:00:39.088Z,101519.84
2018-05-11T23:03:06.628Z,101518.63
2018-05-11T23:05:34.166Z,101523.62
2018-05-11T23:08:02.053Z,101518.14
2018-05-11T23:10:29.754Z,101518.11
2018-05-11T23:12:57.840Z,101518.50
2018-05-11T23:15:25.353Z,101515.48
2018-05-11T23:17:52.854Z,101515.27
2018-05-11T23:20:20.398Z,101510.83
2018-05-11T23:22:47.903Z,101514.72
2018-05-11T23:25:15.438Z,101507.80
2018-05-11T23:27:43.039Z,101507.75
2018-05-11T23:30:10.507Z,101501.16
2018-05-11T23:32:38.012Z,101507.66
2018-05-11T23:35:05.606Z,101512.23
2018-05-11T23:37:33.295Z,101506.03
2018-05-11T23:40:00.819Z,101510.46
2018-05-11T23:42:28.326Z,101503.98
2018-05-11T23:44:55.825Z,101506.88
2018-05-11T23:47:23.401Z,101492.73
2018-05-11T23:49:50.938Z,101498.30
2018-05-11T23:52:18.384Z,101496.28
2018-05-11T23:54:46.113Z,101490.97
2018-05-11T23:57:13.646Z,101482.97
2018-05-11T23:59:41.130Z,101480.48
